sensor_id;sensor_type;location;lat;lon;timestamp;P1;durP1;ratioP1;P2;durP2;ratioP2
13408;SDS011;6775;49.574;11.170;2023-07-08T00:02:14;3.53;;;2.90;;
13408;SDS011;6775;49.574;11.170;2023-07-08T00:04:42;3.77;;;2.67;;
13408;SDS011;6775;49.574;11.170;2023-07-08T00:07:10;3.47;;;3.17;;
13408;SDS011;6775;49.574;11.170;2023-07-08T00:09:39;3.10;;;2.80;;
13408;SDS011;6775;49.574;11.170;2023-07-08T00:12:08;3.40;;;2.73;;
13408;SDS011;6775;49.574;11.170;2023-07-08T00:14:37;4.63;;;3.03;;
13408;SDS011;6775;49.574;11.170;2023-07-08T00:17:10;4.23;;;3.07;;
13408;SDS011;6775;49.574;11.170;2023-07-08T00:19:40;3.67;;;3.07;;
13408;SDS011;6775;49.574;11.170;2023-07-08T00:22:10;4.23;;;3.07;;
13408;SDS011;6775;49.574;11.170;2023-07-08T00:24:41;3.53;;;2.80;;
13408;SDS011;6775;49.574;11.170;2023-07-08T00:27:10;3.13;;;2.83;;
13408;SDS011;6775;49.574;11.170;2023-07-08T00:29:39;2.87;;;2.57;;
13408;SDS011;6775;49.574;11.170;2023-07-08T00:32:08;3.77;;;3.00;;
13408;SDS011;6775;49.574;11.170;2023-07-08T00:34:38;3.10;;;2.80;;
13408;SDS011;6775;49.574;11.170;2023-07-08T00:37:08;3.63;;;2.87;;
13408;SDS011;6775;49.574;11.170;2023-07-08T00:39:38;3.53;;;2.70;;
13408;SDS011;6775;49.574;11.170;2023-07-08T00:42:10;2.90;;;2.60;;
13408;SDS011;6775;49.574;11.170;2023-07-08T00:44:43;3.00;;;2.70;;
13408;SDS011;6775;49.574;11.170;2023-07-08T00:47:11;3.57;;;2.70;;
13408;SDS011;6775;49.574;11.170;2023-07-08T00:49:43;3.00;;;2.70;;
13408;SDS011;6775;49.574;11.170;2023-07-08T00:52:19;3.27;;;2.50;;
13408;SDS011;6775;49.574;11.170;2023-07-08T00:54:49;4.17;;;2.87;;
13408;SDS011;6775;49.574;11.170;2023-07-08T00:57:18;3.87;;;2.97;;
13408;SDS011;6775;49.574;11.170;2023-07-08T00:59:48;3.90;;;3.17;;
13408;SDS011;6775;49.574;11.170;2023-07-08T01:02:21;3.93;;;3.13;;
13408;SDS011;6775;49.574;11.170;2023-07-08T01:04:52;4.20;;;3.10;;
13408;SDS011;6775;49.574;11.170;2023-07-08T01:07:24;3.57;;;3.10;;
13408;SDS011;6775;49.574;11.170;2023-07-08T01:10:00;3.33;;;2.90;;
13408;SDS011;6775;49.574;11.170;2023-07-08T01:12:31;4.73;;;3.30;;
13408;SDS011;6775;49.574;11.170;2023-07-08T01:15:02;4.07;;;3.40;;
13408;SDS011;6775;49.574;11.170;2023-07-08T01:17:31;4.23;;;3.10;;
13408;SDS011;6775;49.574;11.170;2023-07-08T01:20:00;3.80;;;3.20;;
13408;SDS011;6775;49.574;11.170;2023-07-08T01:22:33;4.13;;;3.37;;
13408;SDS011;6775;49.574;11.170;2023-07-08T01:25:02;3.93;;;3.30;;
13408;SDS011;6775;49.574;11.170;2023-07-08T01:27:31;3.90;;;3.33;;
13408;SDS011;6775;49.574;11.170;2023-07-08T01:30:02;3.63;;;3.27;;
13408;SDS011;6775;49.574;11.170;2023-07-08T01:32:31;4.47;;;3.10;;
13408;SDS011;6775;49.574;11.170;2023-07-08T01:35:01;5.30;;;3.40;;
13408;SDS011;6775;49.574;11.170;2023-07-08T01:37:33;4.33;;;3.47;;
13408;SDS011;6775;49.574;11.170;2023-07-08T01:42:59;4.33;;;3.60;;
13408;SDS011;6775;49.574;11.170;2023-07-08T01:45:28;5.27;;;4.07;;
13408;SDS011;6775;49.574;11.170;2023-07-08T01:48:00;3.60;;;3.20;;
13408;SDS011;6775;49.574;11.170;2023-07-08T01:50:31;3.90;;;3.17;;
13408;SDS011;6775;49.574;11.170;2023-07-08T01:53:05;4.80;;;3.47;;
13408;SDS011;6775;49.574;11.170;2023-07-08T01:55:37;4.90;;;3.40;;
13408;SDS011;6775;49.574;11.170;2023-07-08T01:58:05;4.50;;;3.53;;
13408;SDS011;6775;49.574;11.170;2023-07-08T02:00:33;4.87;;;3.87;;
13408;SDS011;6775;49.574;11.170;2023-07-08T02:03:01;3.83;;;3.47;;
13408;SDS011;6775;49.574;11.170;2023-07-08T02:05:29;4.13;;;3.73;;
13408;SDS011;6775;49.574;11.170;2023-07-08T02:07:57;4.50;;;3.70;;
13408;SDS011;6775;49.574;11.170;2023-07-08T02:10:26;4.57;;;3.50;;
13408;SDS011;6775;49.574;11.170;2023-07-08T02:12:54;4.67;;;4.17;;
13408;SDS011;6775;49.574;11.170;2023-07-08T02:15:22;4.67;;;4.00;;
13408;SDS011;6775;49.574;11.170;2023-07-08T02:17:49;5.00;;;3.90;;
13408;SDS011;6775;49.574;11.170;2023-07-08T02:20:17;5.07;;;3.47;;
13408;SDS011;6775;49.574;11.170;2023-07-08T02:22:45;4.17;;;3.77;;
13408;SDS011;6775;49.574;11.170;2023-07-08T02:25:13;4.50;;;3.67;;
13408;SDS011;6775;49.574;11.170;2023-07-08T02:27:43;5.57;;;4.10;;
13408;SDS011;6775;49.574;11.170;2023-07-08T02:30:11;6.13;;;4.00;;
13408;SDS011;6775;49.574;11.170;2023-07-08T02:32:38;3.93;;;3.53;;
13408;SDS011;6775;49.574;11.170;2023-07-08T02:35:07;5.07;;;4.13;;
13408;SDS011;6775;49.574;11.170;2023-07-08T02:37:36;4.23;;;3.53;;
13408;SDS011;6775;49.574;11.170;2023-07-08T02:40:04;4.70;;;4.10;;
13408;SDS011;6775;49.574;11.170;2023-07-08T02:42:33;4.70;;;4.30;;
13408;SDS011;6775;49.574;11.170;2023-07-08T02:45:02;5.97;;;3.90;;
13408;SDS011;6775;49.574;11.170;2023-07-08T02:47:31;4.43;;;3.40;;
13408;SDS011;6775;49.574;11.170;2023-07-08T02:49:59;5.60;;;4.00;;
13408;SDS011;6775;49.574;11.170;2023-07-08T02:52:26;4.00;;;3.37;;
13408;SDS011;6775;49.574;11.170;2023-07-08T02:54:54;5.20;;;3.70;;
13408;SDS011;6775;49.574;11.170;2023-07-08T02:57:22;4.93;;;3.80;;
13408;SDS011;6775;49.574;11.170;2023-07-08T02:59:50;4.23;;;3.70;;
13408;SDS011;6775;49.574;11.170;2023-07-08T03:02:20;4.73;;;3.27;;
13408;SDS011;6775;49.574;11.170;2023-07-08T03:04:49;4.10;;;3.37;;
13408;SDS011;6775;49.574;11.170;2023-07-08T03:07:17;3.40;;;3.07;;
13408;SDS011;6775;49.574;11.170;2023-07-08T03:09:44;4.13;;;3.43;;
13408;SDS011;6775;49.574;11.170;2023-07-08T03:12:12;3.73;;;3.40;;
13408;SDS011;6775;49.574;11.170;2023-07-08T03:14:40;4.53;;;3.70;;
13408;SDS011;6775;49.574;11.170;2023-07-08T03:17:08;5.10;;;3.43;;
13408;SDS011;6775;49.574;11.170;2023-07-08T03:19:37;4.43;;;3.70;;
13408;SDS011;6775;49.574;11.170;2023-07-08T03:22:05;4.80;;;3.63;;
13408;SDS011;6775;49.574;11.170;2023-07-08T03:24:34;4.63;;;3.70;;
13408;SDS011;6775;49.574;11.170;2023-07-08T03:27:02;3.80;;;3.40;;
13408;SDS011;6775;49.574;11.170;2023-07-08T03:29:31;4.70;;;3.60;;
13408;SDS011;6775;49.574;11.170;2023-07-08T03:31:59;3.73;;;2.83;;
13408;SDS011;6775;49.574;11.170;2023-07-08T03:34:27;4.13;;;3.30;;
13408;SDS011;6775;49.574;11.170;2023-07-08T03:36:56;4.10;;;3.70;;
13408;SDS011;6775;49.574;11.170;2023-07-08T03:39:24;4.60;;;3.77;;
13408;SDS011;6775;49.574;11.170;2023-07-08T03:41:52;4.33;;;3.17;;
13408;SDS011;6775;49.574;11.170;2023-07-08T03:44:20;3.50;;;3.20;;
13408;SDS011;6775;49.574;11.170;2023-07-08T03:46:49;3.67;;;3.30;;
13408;SDS011;6775;49.574;11.170;2023-07-08T03:49:17;3.80;;;3.30;;
13408;SDS011;6775;49.574;11.170;2023-07-08T03:51:48;4.90;;;3.53;;
13408;SDS011;6775;49.574;11.170;2023-07-08T03:54:19;4.13;;;3.53;;
13408;SDS011;6775;49.574;11.170;2023-07-08T03:56:47;4.17;;;3.40;;
13408;SDS011;6775;49.574;11.170;2023-07-08T03:59:15;3.33;;;3.00;;
13408;SDS011;6775;49.574;11.170;2023-07-08T04:01:43;5.03;;;3.40;;
13408;SDS011;6775;49.574;11.170;2023-07-08T04:04:12;4.70;;;3.17;;
13408;SDS011;6775;49.574;11.170;2023-07-08T04:06:41;3.80;;;3.17;;
13408;SDS011;6775;49.574;11.170;2023-07-08T04:09:11;3.63;;;3.10;;
13408;SDS011;6775;49.574;11.170;2023-07-08T04:11:40;4.50;;;3.30;;
13408;SDS011;6775;49.574;11.170;2023-07-08T04:14:08;4.20;;;3.40;;
13408;SDS011;6775;49.574;11.170;2023-07-08T04:16:47;3.47;;;3.17;;
13408;SDS011;6775;49.574;11.170;2023-07-08T04:19:17;4.70;;;3.50;;
13408;SDS011;6775;49.574;11.170;2023-07-08T04:21:46;3.97;;;3.50;;
13408;SDS011;6775;49.574;11.170;2023-07-08T04:24:14;4.27;;;3.20;;
13408;SDS011;6775;49.574;11.170;2023-07-08T04:26:46;3.43;;;3.00;;
13408;SDS011;6775;49.574;11.170;2023-07-08T04:29:15;3.37;;;3.07;;
13408;SDS011;6775;49.574;11.170;2023-07-08T04:31:44;3.67;;;2.70;;
13408;SDS011;6775;49.574;11.170;2023-07-08T04:34:13;3.50;;;3.20;;
13408;SDS011;6775;49.574;11.170;2023-07-08T04:36:42;3.50;;;3.00;;
13408;SDS011;6775;49.574;11.170;2023-07-08T04:39:10;4.63;;;3.20;;
13408;SDS011;6775;49.574;11.170;2023-07-08T04:41:39;3.57;;;3.00;;
13408;SDS011;6775;49.574;11.170;2023-07-08T04:44:11;4.87;;;2.97;;
13408;SDS011;6775;49.574;11.170;2023-07-08T04:46:39;3.17;;;2.87;;
13408;SDS011;6775;49.574;11.170;2023-07-08T04:49:12;2.80;;;2.53;;
13408;SDS011;6775;49.574;11.170;2023-07-08T04:51:40;3.90;;;2.80;;
13408;SDS011;6775;49.574;11.170;2023-07-08T04:54:08;3.30;;;2.90;;
13408;SDS011;6775;49.574;11.170;2023-07-08T04:56:37;3.43;;;2.90;;
13408;SDS011;6775;49.574;11.170;2023-07-08T04:59:07;3.40;;;2.90;;
13408;SDS011;6775;49.574;11.170;2023-07-08T05:01:37;3.37;;;3.07;;
13408;SDS011;6775;49.574;11.170;2023-07-08T05:04:05;3.07;;;2.40;;
13408;SDS011;6775;49.574;11.170;2023-07-08T05:06:33;2.60;;;2.37;;
13408;SDS011;6775;49.574;11.170;2023-07-08T05:09:02;2.47;;;2.27;;
13408;SDS011;6775;49.574;11.170;2023-07-08T05:11:31;2.73;;;2.50;;
13408;SDS011;6775;49.574;11.170;2023-07-08T05:13:59;2.60;;;2.37;;
13408;SDS011;6775;49.574;11.170;2023-07-08T05:16:27;3.20;;;2.50;;
13408;SDS011;6775;49.574;11.170;2023-07-08T05:18:56;3.40;;;2.77;;
13408;SDS011;6775;49.574;11.170;2023-07-08T05:21:24;3.57;;;2.93;;
13408;SDS011;6775;49.574;11.170;2023-07-08T05:23:53;3.20;;;2.53;;
13408;SDS011;6775;49.574;11.170;2023-07-08T05:26:21;2.83;;;2.53;;
13408;SDS011;6775;49.574;11.170;2023-07-08T05:28:49;3.73;;;2.90;;
13408;SDS011;6775;49.574;11.170;2023-07-08T05:31:17;3.30;;;2.93;;
13408;SDS011;6775;49.574;11.170;2023-07-08T05:33:45;3.10;;;2.80;;
13408;SDS011;6775;49.574;11.170;2023-07-08T05:36:14;3.00;;;2.70;;
13408;SDS011;6775;49.574;11.170;2023-07-08T05:38:42;2.80;;;2.60;;
13408;SDS011;6775;49.574;11.170;2023-07-08T05:41:10;3.20;;;2.77;;
13408;SDS011;6775;49.574;11.170;2023-07-08T05:43:38;2.83;;;2.60;;
13408;SDS011;6775;49.574;11.170;2023-07-08T05:46:07;3.50;;;2.90;;
13408;SDS011;6775;49.574;11.170;2023-07-08T05:48:38;2.47;;;2.27;;
13408;SDS011;6775;49.574;11.170;2023-07-08T05:51:06;3.00;;;2.50;;
13408;SDS011;6775;49.574;11.170;2023-07-08T05:53:35;4.00;;;3.20;;
13408;SDS011;6775;49.574;11.170;2023-07-08T05:56:03;2.40;;;2.20;;
13408;SDS011;6775;49.574;11.170;2023-07-08T05:58:31;5.20;;;3.80;;
13408;SDS011;6775;49.574;11.170;2023-07-08T06:01:00;6.63;;;4.00;;
13408;SDS011;6775;49.574;11.170;2023-07-08T06:03:28;3.40;;;3.10;;
13408;SDS011;6775;49.574;11.170;2023-07-08T06:05:56;5.23;;;3.80;;
13408;SDS011;6775;49.574;11.170;2023-07-08T06:08:24;4.70;;;3.57;;
13408;SDS011;6775;49.574;11.170;2023-07-08T06:10:53;4.30;;;3.67;;
13408;SDS011;6775;49.574;11.170;2023-07-08T06:13:21;6.53;;;3.50;;
13408;SDS011;6775;49.574;11.170;2023-07-08T06:15:49;5.30;;;3.80;;
13408;SDS011;6775;49.574;11.170;2023-07-08T06:18:17;5.93;;;3.87;;
13408;SDS011;6775;49.574;11.170;2023-07-08T06:20:50;5.50;;;3.90;;
13408;SDS011;6775;49.574;11.170;2023-07-08T06:23:19;3.57;;;3.27;;
13408;SDS011;6775;49.574;11.170;2023-07-08T06:25:46;4.93;;;3.83;;
13408;SDS011;6775;49.574;11.170;2023-07-08T06:28:16;7.83;;;3.43;;
13408;SDS011;6775;49.574;11.170;2023-07-08T06:30:44;5.90;;;3.70;;
13408;SDS011;6775;49.574;11.170;2023-07-08T06:33:12;5.93;;;3.83;;
13408;SDS011;6775;49.574;11.170;2023-07-08T06:35:40;4.80;;;3.83;;
13408;SDS011;6775;49.574;11.170;2023-07-08T06:38:09;3.90;;;3.50;;
13408;SDS011;6775;49.574;11.170;2023-07-08T06:40:37;4.33;;;3.53;;
13408;SDS011;6775;49.574;11.170;2023-07-08T06:43:04;4.03;;;3.30;;
13408;SDS011;6775;49.574;11.170;2023-07-08T06:45:34;5.90;;;3.87;;
13408;SDS011;6775;49.574;11.170;2023-07-08T06:48:02;4.00;;;3.40;;
13408;SDS011;6775;49.574;11.170;2023-07-08T06:50:30;3.87;;;3.47;;
13408;SDS011;6775;49.574;11.170;2023-07-08T06:52:58;4.00;;;3.60;;
13408;SDS011;6775;49.574;11.170;2023-07-08T06:55:25;4.20;;;3.33;;
13408;SDS011;6775;49.574;11.170;2023-07-08T06:57:55;4.20;;;3.60;;
13408;SDS011;6775;49.574;11.170;2023-07-08T07:00:23;3.77;;;3.30;;
13408;SDS011;6775;49.574;11.170;2023-07-08T07:02:52;5.07;;;3.87;;
13408;SDS011;6775;49.574;11.170;2023-07-08T07:05:20;4.20;;;3.57;;
13408;SDS011;6775;49.574;11.170;2023-07-08T07:07:49;5.53;;;3.77;;
13408;SDS011;6775;49.574;11.170;2023-07-08T07:10:18;3.80;;;3.23;;
13408;SDS011;6775;49.574;11.170;2023-07-08T07:12:46;4.50;;;3.63;;
13408;SDS011;6775;49.574;11.170;2023-07-08T07:15:14;3.77;;;3.23;;
13408;SDS011;6775;49.574;11.170;2023-07-08T07:17:42;4.37;;;3.60;;
13408;SDS011;6775;49.574;11.170;2023-07-08T07:20:12;4.07;;;3.50;;
13408;SDS011;6775;49.574;11.170;2023-07-08T07:22:40;4.53;;;3.40;;
13408;SDS011;6775;49.574;11.170;2023-07-08T07:25:08;4.10;;;3.27;;
13408;SDS011;6775;49.574;11.170;2023-07-08T07:27:36;4.63;;;3.37;;
13408;SDS011;6775;49.574;11.170;2023-07-08T07:30:04;5.33;;;3.27;;
13408;SDS011;6775;49.574;11.170;2023-07-08T07:32:33;4.70;;;3.37;;
13408;SDS011;6775;49.574;11.170;2023-07-08T07:35:02;5.33;;;3.40;;
13408;SDS011;6775;49.574;11.170;2023-07-08T07:37:31;4.30;;;3.67;;
13408;SDS011;6775;49.574;11.170;2023-07-08T07:39:59;4.23;;;3.60;;
13408;SDS011;6775;49.574;11.170;2023-07-08T07:42:27;5.17;;;3.33;;
13408;SDS011;6775;49.574;11.170;2023-07-08T07:44:55;3.93;;;3.53;;
13408;SDS011;6775;49.574;11.170;2023-07-08T07:47:23;4.27;;;3.60;;
13408;SDS011;6775;49.574;11.170;2023-07-08T07:49:54;5.60;;;3.80;;
13408;SDS011;6775;49.574;11.170;2023-07-08T07:52:22;3.93;;;3.53;;
13408;SDS011;6775;49.574;11.170;2023-07-08T07:54:52;4.43;;;3.50;;
13408;SDS011;6775;49.574;11.170;2023-07-08T07:57:20;5.50;;;3.80;;
13408;SDS011;6775;49.574;11.170;2023-07-08T07:59:48;3.97;;;3.20;;
13408;SDS011;6775;49.574;11.170;2023-07-08T08:02:16;4.20;;;3.43;;
13408;SDS011;6775;49.574;11.170;2023-07-08T08:04:45;3.50;;;3.10;;
13408;SDS011;6775;49.574;11.170;2023-07-08T08:07:13;4.30;;;3.10;;
13408;SDS011;6775;49.574;11.170;2023-07-08T08:09:41;6.83;;;3.50;;
13408;SDS011;6775;49.574;11.170;2023-07-08T08:12:10;4.40;;;3.40;;
13408;SDS011;6775;49.574;11.170;2023-07-08T08:14:38;4.20;;;3.50;;
13408;SDS011;6775;49.574;11.170;2023-07-08T08:17:06;4.20;;;3.23;;
13408;SDS011;6775;49.574;11.170;2023-07-08T08:19:34;4.47;;;3.10;;
13408;SDS011;6775;49.574;11.170;2023-07-08T08:22:03;4.67;;;3.53;;
13408;SDS011;6775;49.574;11.170;2023-07-08T08:24:31;4.03;;;3.40;;
13408;SDS011;6775;49.574;11.170;2023-07-08T08:26:58;3.87;;;3.47;;
13408;SDS011;6775;49.574;11.170;2023-07-08T08:29:28;4.60;;;3.70;;
13408;SDS011;6775;49.574;11.170;2023-07-08T08:31:55;4.87;;;3.30;;
13408;SDS011;6775;49.574;11.170;2023-07-08T08:34:23;4.33;;;3.27;;
13408;SDS011;6775;49.574;11.170;2023-07-08T08:36:51;4.80;;;3.60;;
13408;SDS011;6775;49.574;11.170;2023-07-08T08:39:21;3.87;;;3.47;;
13408;SDS011;6775;49.574;11.170;2023-07-08T08:41:50;4.80;;;3.40;;
13408;SDS011;6775;49.574;11.170;2023-07-08T08:44:22;3.47;;;3.17;;
13408;SDS011;6775;49.574;11.170;2023-07-08T08:47:00;5.20;;;3.53;;
13408;SDS011;6775;49.574;11.170;2023-07-08T08:49:35;3.17;;;2.87;;
13408;SDS011;6775;49.574;11.170;2023-07-08T08:52:09;5.27;;;3.67;;
13408;SDS011;6775;49.574;11.170;2023-07-08T08:54:37;4.87;;;3.37;;
13408;SDS011;6775;49.574;11.170;2023-07-08T08:57:08;3.83;;;3.43;;
13408;SDS011;6775;49.574;11.170;2023-07-08T08:59:44;4.17;;;3.30;;
13408;SDS011;6775;49.574;11.170;2023-07-08T09:02:22;4.03;;;3.60;;
13408;SDS011;6775;49.574;11.170;2023-07-08T09:04:55;4.87;;;3.37;;
13408;SDS011;6775;49.574;11.170;2023-07-08T09:07:25;4.03;;;3.23;;
13408;SDS011;6775;49.574;11.170;2023-07-08T09:09:57;4.03;;;3.63;;
13408;SDS011;6775;49.574;11.170;2023-07-08T09:12:29;5.00;;;3.60;;
13408;SDS011;6775;49.574;11.170;2023-07-08T09:14:59;4.20;;;3.37;;
13408;SDS011;6775;49.574;11.170;2023-07-08T09:17:30;4.00;;;3.30;;
13408;SDS011;6775;49.574;11.170;2023-07-08T09:20:05;3.17;;;2.87;;
13408;SDS011;6775;49.574;11.170;2023-07-08T09:22:41;5.60;;;3.30;;
13408;SDS011;6775;49.574;11.170;2023-07-08T09:25:22;4.20;;;3.10;;
13408;SDS011;6775;49.574;11.170;2023-07-08T09:27:54;3.20;;;2.90;;
13408;SDS011;6775;49.574;11.170;2023-07-08T09:30:22;4.23;;;3.00;;
13408;SDS011;6775;49.574;11.170;2023-07-08T09:32:54;3.73;;;3.33;;
13408;SDS011;6775;49.574;11.170;2023-07-08T09:35:22;3.90;;;2.67;;
13408;SDS011;6775;49.574;11.170;2023-07-08T09:37:52;4.67;;;3.20;;
13408;SDS011;6775;49.574;11.170;2023-07-08T09:40:22;4.70;;;2.83;;
13408;SDS011;6775;49.574;11.170;2023-07-08T09:43:00;3.80;;;3.05;;
13408;SDS011;6775;49.574;11.170;2023-07-08T09:45:39;3.20;;;2.90;;
13408;SDS011;6775;49.574;11.170;2023-07-08T09:48:16;3.53;;;3.00;;
13408;SDS011;6775;49.574;11.170;2023-07-08T09:50:47;3.80;;;3.07;;
13408;SDS011;6775;49.574;11.170;2023-07-08T09:53:16;4.17;;;2.90;;
13408;SDS011;6775;49.574;11.170;2023-07-08T09:55:44;4.03;;;3.07;;
13408;SDS011;6775;49.574;11.170;2023-07-08T09:58:13;3.90;;;2.80;;
13408;SDS011;6775;49.574;11.170;2023-07-08T10:00:51;3.70;;;2.87;;
13408;SDS011;6775;49.574;11.170;2023-07-08T10:03:24;3.23;;;2.70;;
13408;SDS011;6775;49.574;11.170;2023-07-08T10:05:55;3.00;;;2.73;;
13408;SDS011;6775;49.574;11.170;2023-07-08T10:08:28;3.70;;;2.90;;
13408;SDS011;6775;49.574;11.170;2023-07-08T10:11:03;3.10;;;2.67;;
13408;SDS011;6775;49.574;11.170;2023-07-08T10:13:50;3.60;;;3.03;;
13408;SDS011;6775;49.574;11.170;2023-07-08T10:16:39;3.80;;;3.40;;
13408;SDS011;6775;49.574;11.170;2023-07-08T10:19:11;4.60;;;3.03;;
13408;SDS011;6775;49.574;11.170;2023-07-08T10:21:44;3.30;;;3.00;;
13408;SDS011;6775;49.574;11.170;2023-07-08T10:24:22;4.30;;;2.53;;
13408;SDS011;6775;49.574;11.170;2023-07-08T10:27:08;3.23;;;2.87;;
13408;SDS011;6775;49.574;11.170;2023-07-08T10:29:48;2.83;;;2.63;;
13408;SDS011;6775;49.574;11.170;2023-07-08T10:32:24;2.73;;;2.50;;
13408;SDS011;6775;49.574;11.170;2023-07-08T10:35:02;2.83;;;2.57;;
13408;SDS011;6775;49.574;11.170;2023-07-08T10:37:40;2.80;;;2.37;;
13408;SDS011;6775;49.574;11.170;2023-07-08T10:40:22;3.53;;;2.83;;
13408;SDS011;6775;49.574;11.170;2023-07-08T10:43:15;2.87;;;2.63;;
13408;SDS011;6775;49.574;11.170;2023-07-08T10:46:03;3.80;;;3.50;;
13408;SDS011;6775;49.574;11.170;2023-07-08T10:48:45;3.37;;;2.50;;
13408;SDS011;6775;49.574;11.170;2023-07-08T10:51:26;3.97;;;2.90;;
13408;SDS011;6775;49.574;11.170;2023-07-08T10:54:07;3.83;;;3.03;;
13408;SDS011;6775;49.574;11.170;2023-07-08T10:56:50;2.80;;;2.50;;
13408;SDS011;6775;49.574;11.170;2023-07-08T10:59:25;2.70;;;2.50;;
13408;SDS011;6775;49.574;11.170;2023-07-08T11:02:17;3.13;;;2.60;;
13408;SDS011;6775;49.574;11.170;2023-07-08T11:05:01;3.33;;;2.77;;
13408;SDS011;6775;49.574;11.170;2023-07-08T11:07:39;4.27;;;3.30;;
13408;SDS011;6775;49.574;11.170;2023-07-08T11:10:10;4.07;;;3.23;;
13408;SDS011;6775;49.574;11.170;2023-07-08T11:12:45;3.10;;;2.80;;
13408;SDS011;6775;49.574;11.170;2023-07-08T11:15:16;2.90;;;2.70;;
13408;SDS011;6775;49.574;11.170;2023-07-08T11:17:52;3.57;;;3.00;;
13408;SDS011;6775;49.574;11.170;2023-07-08T11:20:34;3.30;;;2.80;;
13408;SDS011;6775;49.574;11.170;2023-07-08T11:23:10;3.10;;;2.90;;
13408;SDS011;6775;49.574;11.170;2023-07-08T11:25:50;3.70;;;3.23;;
13408;SDS011;6775;49.574;11.170;2023-07-08T11:28:21;4.43;;;3.10;;
13408;SDS011;6775;49.574;11.170;2023-07-08T11:30:51;3.50;;;3.20;;
13408;SDS011;6775;49.574;11.170;2023-07-08T11:33:21;3.80;;;2.90;;
13408;SDS011;6775;49.574;11.170;2023-07-08T11:35:52;3.50;;;3.20;;
13408;SDS011;6775;49.574;11.170;2023-07-08T11:38:25;3.83;;;2.90;;
13408;SDS011;6775;49.574;11.170;2023-07-08T11:40:55;3.40;;;3.10;;
13408;SDS011;6775;49.574;11.170;2023-07-08T11:43:26;3.70;;;3.40;;
13408;SDS011;6775;49.574;11.170;2023-07-08T11:46:03;5.00;;;3.57;;
13408;SDS011;6775;49.574;11.170;2023-07-08T11:48:40;3.20;;;2.90;;
13408;SDS011;6775;49.574;11.170;2023-07-08T11:51:15;3.00;;;2.70;;
13408;SDS011;6775;49.574;11.170;2023-07-08T11:53:50;3.60;;;2.90;;
13408;SDS011;6775;49.574;11.170;2023-07-08T11:56:27;3.20;;;2.90;;
13408;SDS011;6775;49.574;11.170;2023-07-08T11:59:03;3.67;;;3.03;;
13408;SDS011;6775;49.574;11.170;2023-07-08T12:01:38;3.50;;;3.20;;
13408;SDS011;6775;49.574;11.170;2023-07-08T12:04:23;3.33;;;2.80;;
13408;SDS011;6775;49.574;11.170;2023-07-08T12:07:01;3.03;;;2.73;;
13408;SDS011;6775;49.574;11.170;2023-07-08T12:09:38;3.10;;;2.80;;
13408;SDS011;6775;49.574;11.170;2023-07-08T12:12:14;2.50;;;2.30;;
13408;SDS011;6775;49.574;11.170;2023-07-08T12:14:49;3.70;;;2.83;;
13408;SDS011;6775;49.574;11.170;2023-07-08T12:17:17;3.30;;;3.00;;
13408;SDS011;6775;49.574;11.170;2023-07-08T12:19:45;3.10;;;2.80;;
13408;SDS011;6775;49.574;11.170;2023-07-08T12:22:15;3.63;;;3.20;;
13408;SDS011;6775;49.574;11.170;2023-07-08T12:24:46;3.47;;;2.87;;
13408;SDS011;6775;49.574;11.170;2023-07-08T12:27:14;3.40;;;3.10;;
13408;SDS011;6775;49.574;11.170;2023-07-08T12:29:42;4.53;;;3.30;;
13408;SDS011;6775;49.574;11.170;2023-07-08T12:32:11;3.37;;;3.00;;
13408;SDS011;6775;49.574;11.170;2023-07-08T12:34:40;3.20;;;2.70;;
13408;SDS011;6775;49.574;11.170;2023-07-08T12:37:10;3.70;;;3.33;;
13408;SDS011;6775;49.574;11.170;2023-07-08T12:39:39;3.43;;;3.10;;
13408;SDS011;6775;49.574;11.170;2023-07-08T12:42:11;3.47;;;2.97;;
13408;SDS011;6775;49.574;11.170;2023-07-08T12:44:40;3.50;;;3.15;;
13408;SDS011;6775;49.574;11.170;2023-07-08T12:47:10;3.73;;;2.70;;
13408;SDS011;6775;49.574;11.170;2023-07-08T12:49:38;3.00;;;2.67;;
13408;SDS011;6775;49.574;11.170;2023-07-08T12:52:06;3.53;;;3.10;;
13408;SDS011;6775;49.574;11.170;2023-07-08T12:54:46;3.03;;;2.73;;
13408;SDS011;6775;49.574;11.170;2023-07-08T12:57:15;4.40;;;3.07;;
13408;SDS011;6775;49.574;11.170;2023-07-08T12:59:44;3.87;;;3.00;;
13408;SDS011;6775;49.574;11.170;2023-07-08T13:02:14;4.27;;;3.27;;
13408;SDS011;6775;49.574;11.170;2023-07-08T13:04:45;4.37;;;3.50;;
13408;SDS011;6775;49.574;11.170;2023-07-08T13:07:20;3.47;;;3.17;;
13408;SDS011;6775;49.574;11.170;2023-07-08T13:09:56;3.30;;;2.73;;
13408;SDS011;6775;49.574;11.170;2023-07-08T13:12:25;3.20;;;2.90;;
13408;SDS011;6775;49.574;11.170;2023-07-08T13:14:54;3.93;;;2.93;;
13408;SDS011;6775;49.574;11.170;2023-07-08T13:17:24;4.93;;;3.13;;
13408;SDS011;6775;49.574;11.170;2023-07-08T13:19:52;3.90;;;3.37;;
13408;SDS011;6775;49.574;11.170;2023-07-08T13:22:21;4.90;;;2.93;;
13408;SDS011;6775;49.574;11.170;2023-07-08T13:24:58;3.20;;;2.90;;
13408;SDS011;6775;49.574;11.170;2023-07-08T13:27:28;3.13;;;2.80;;
13408;SDS011;6775;49.574;11.170;2023-07-08T13:29:57;3.30;;;3.00;;
13408;SDS011;6775;49.574;11.170;2023-07-08T13:32:41;2.60;;;2.40;;
13408;SDS011;6775;49.574;11.170;2023-07-08T13:35:20;2.87;;;2.40;;
13408;SDS011;6775;49.574;11.170;2023-07-08T13:37:49;2.50;;;2.30;;
13408;SDS011;6775;49.574;11.170;2023-07-08T13:40:17;2.23;;;2.03;;
13408;SDS011;6775;49.574;11.170;2023-07-08T13:42:50;2.63;;;2.33;;
13408;SDS011;6775;49.574;11.170;2023-07-08T13:45:21;3.00;;;2.60;;
13408;SDS011;6775;49.574;11.170;2023-07-08T13:47:58;2.77;;;2.50;;
13408;SDS011;6775;49.574;11.170;2023-07-08T13:50:29;3.63;;;2.90;;
13408;SDS011;6775;49.574;11.170;2023-07-08T13:53:02;4.10;;;3.10;;
13408;SDS011;6775;49.574;11.170;2023-07-08T13:55:31;3.30;;;3.00;;
13408;SDS011;6775;49.574;11.170;2023-07-08T13:58:01;4.17;;;3.23;;
13408;SDS011;6775;49.574;11.170;2023-07-08T14:00:29;3.70;;;3.30;;
13408;SDS011;6775;49.574;11.170;2023-07-08T14:02:58;3.73;;;3.10;;
13408;SDS011;6775;49.574;11.170;2023-07-08T14:05:26;3.60;;;3.30;;
13408;SDS011;6775;49.574;11.170;2023-07-08T14:07:54;3.80;;;3.17;;
13408;SDS011;6775;49.574;11.170;2023-07-08T14:10:22;4.43;;;3.33;;
13408;SDS011;6775;49.574;11.170;2023-07-08T14:12:50;3.80;;;3.30;;
13408;SDS011;6775;49.574;11.170;2023-07-08T14:15:19;4.13;;;3.60;;
13408;SDS011;6775;49.574;11.170;2023-07-08T14:17:47;4.40;;;3.13;;
13408;SDS011;6775;49.574;11.170;2023-07-08T14:20:17;3.63;;;2.70;;
13408;SDS011;6775;49.574;11.170;2023-07-08T14:22:45;3.70;;;3.30;;
13408;SDS011;6775;49.574;11.170;2023-07-08T14:25:13;3.90;;;3.30;;
13408;SDS011;6775;49.574;11.170;2023-07-08T14:27:46;4.20;;;3.17;;
13408;SDS011;6775;49.574;11.170;2023-07-08T14:30:14;3.50;;;3.10;;
13408;SDS011;6775;49.574;11.170;2023-07-08T14:32:44;4.73;;;3.33;;
13408;SDS011;6775;49.574;11.170;2023-07-08T14:35:15;3.80;;;3.03;;
13408;SDS011;6775;49.574;11.170;2023-07-08T14:37:51;3.50;;;3.10;;
13408;SDS011;6775;49.574;11.170;2023-07-08T14:40:23;3.03;;;2.53;;
13408;SDS011;6775;49.574;11.170;2023-07-08T14:42:54;3.47;;;3.00;;
13408;SDS011;6775;49.574;11.170;2023-07-08T14:45:26;3.33;;;3.00;;
13408;SDS011;6775;49.574;11.170;2023-07-08T14:47:57;4.63;;;3.60;;
13408;SDS011;6775;49.574;11.170;2023-07-08T14:50:25;3.83;;;3.30;;
13408;SDS011;6775;49.574;11.170;2023-07-08T14:52:55;5.60;;;3.10;;
13408;SDS011;6775;49.574;11.170;2023-07-08T14:55:23;4.30;;;3.60;;
13408;SDS011;6775;49.574;11.170;2023-07-08T14:57:52;3.53;;;3.23;;
13408;SDS011;6775;49.574;11.170;2023-07-08T15:00:22;3.73;;;2.97;;
13408;SDS011;6775;49.574;11.170;2023-07-08T15:02:50;4.00;;;3.37;;
13408;SDS011;6775;49.574;11.170;2023-07-08T15:05:22;4.10;;;3.63;;
13408;SDS011;6775;49.574;11.170;2023-07-08T15:07:52;3.57;;;3.27;;
13408;SDS011;6775;49.574;11.170;2023-07-08T15:10:23;3.63;;;3.33;;
13408;SDS011;6775;49.574;11.170;2023-07-08T15:12:53;3.83;;;3.33;;